Time;durP1;ratioP1;P1;durP2;ratioP2;P2;SDS_P1;SDS_P2;PMS_P1;PMS_P2;Temp;Humidity;BMP_temperature;BMP_pressure;BME280_temperature;BME280_humidity;BME280_pressure;Samples;Min_cycle;Max_cycle;Signal;HPM_P1;HPM_P2
2022/06/20 00:00:43;;;;;;;6.03;2.45;;;19.00;96.30;;;19.35;68.30;100560.41;5071822;29;20057;-79
2022/06/20 00:03:24;;;;;;;6.05;2.70;;;19.00;96.60;;;19.31;68.46;100559.56;5071486;29;20059;-80
2022/06/20 00:05:58;;;;;;;5.85;2.70;;;19.00;96.80;;;19.31;68.64;100561.31;5070754;29;20131;-79
2022/06/20 00:08:30;;;;;;;7.63;3.13;;;19.00;96.90;;;19.27;68.81;100539.31;5054771;29;20057;-80
2022/06/20 00:11:02;;;;;;;4.50;2.20;;;18.90;97.00;;;19.24;69.01;100516.41;5060778;29;20053;-79
2022/06/20 00:13:36;;;;;;;4.90;2.65;;;18.90;97.20;;;19.25;68.98;100507.59;5051565;29;20207;-80
2022/06/20 00:16:13;;;;;;;5.95;2.70;;;18.90;97.30;;;19.25;69.11;100522.59;5051611;29;20053;-79
2022/06/20 00:18:47;;;;;;;5.72;2.60;;;18.90;97.50;;;19.24;69.21;100532.28;5052757;29;20060;-80
2022/06/20 00:21:22;;;;;;;4.10;2.60;;;18.90;97.50;;;19.21;69.37;100523.47;5064199;29;20423;-80
2022/06/20 00:23:55;;;;;;;4.78;2.35;;;18.90;97.60;;;19.18;69.41;100537.59;5052751;29;20475;-80
2022/06/20 00:26:27;;;;;;;3.38;2.38;;;18.90;97.70;;;19.15;69.76;100560.47;5052262;29;20152;-80
2022/06/20 00:29:01;;;;;;;5.27;2.63;;;18.90;97.80;;;19.11;70.07;100551.72;5052253;29;20591;-80
2022/06/20 00:31:33;;;;;;;6.20;3.05;;;18.90;98.00;;;19.09;70.50;100540.25;5052245;29;20061;-80
2022/06/20 00:34:05;;;;;;;5.40;2.90;;;18.80;98.20;;;19.06;70.92;100535.00;5052902;29;20535;-80
2022/06/20 00:36:39;;;;;;;5.60;3.33;;;18.80;98.60;;;18.99;71.27;100546.47;5051454;29;20057;-80
2022/06/20 00:39:12;;;;;;;6.20;2.63;;;18.70;98.80;;;18.96;71.40;100564.94;5052062;29;20057;-82
2022/06/20 00:41:44;;;;;;;6.07;2.80;;;18.70;99.00;;;18.93;71.40;100567.63;5051780;29;20136;-79
2022/06/20 00:44:34;;;;;;;6.32;2.75;;;18.60;99.20;;;18.87;72.08;100580.84;5052244;29;20522;-80
2022/06/20 00:47:11;;;;;;;5.18;2.55;;;18.60;99.50;;;18.81;72.55;100573.81;5051587;29;20057;-80
2022/06/20 00:49:51;;;;;;;4.07;2.63;;;18.50;99.80;;;18.84;73.24;100579.06;5051541;29;20113;-80
2022/06/20 00:52:34;;;;;;;6.78;3.17;;;18.50;99.90;;;18.82;73.34;100579.97;5052011;29;20156;-79
2022/06/20 00:55:15;;;;;;;6.22;2.90;;;18.50;99.90;;;18.81;73.74;100607.25;5050769;29;20048;-79
2022/06/20 00:57:51;;;;;;;7.90;3.20;;;18.50;99.90;;;18.77;74.08;100635.41;5051616;29;20139;-80
2022/06/20 01:00:27;;;;;;;6.53;2.70;;;18.50;99.90;;;18.73;74.60;100649.53;5051854;29;20063;-80
2022/06/20 01:03:05;;;;;;;6.50;2.70;;;18.40;99.90;;;18.70;75.34;100675.91;5052453;29;20057;-82
2022/06/20 01:05:46;;;;;;;4.72;2.47;;;18.40;99.90;;;18.73;75.73;100694.41;5051992;29;20053;-81
2022/06/20 01:08:24;;;;;;;4.05;2.85;;;18.40;99.90;;;18.79;76.41;100706.72;5051515;29;20519;-81
2022/06/20 01:11:01;;;;;;;3.95;2.28;;;18.40;99.90;;;18.83;76.90;100740.16;5051495;29;20077;-81
2022/06/20 01:13:33;;;;;;;3.92;2.22;;;18.50;99.90;;;18.90;78.72;100773.59;5051297;29;20412;-80
2022/06/20 01:16:17;;;;;;;4.05;2.35;;;18.50;99.90;;;18.96;80.03;100792.09;5050996;29;20119;-80
2022/06/20 01:18:50;;;;;;;5.97;2.58;;;18.60;99.90;;;19.00;81.24;100801.81;5050469;29;20060;-80
2022/06/20 01:21:25;;;;;;;4.55;2.22;;;18.60;99.90;;;19.03;82.44;100807.06;5050365;29;20428;-80
2022/06/20 01:24:11;;;;;;;7.85;3.13;;;18.60;99.90;;;19.01;82.95;100811.47;5050582;29;20049;-80
2022/06/20 01:26:52;;;;;;;4.93;2.92;;;18.60;99.90;;;18.99;83.88;100818.53;5049743;29;20053;-80
2022/06/20 01:29:25;;;;;;;8.48;3.10;;;18.60;99.90;;;18.94;84.31;100836.13;5049466;29;20049;-80
2022/06/20 01:31:57;;;;;;;6.03;3.38;;;18.60;99.90;;;18.90;84.68;100842.28;5050130;29;20049;-80
2022/06/20 01:34:29;;;;;;;6.78;4.50;;;18.60;99.90;;;18.83;84.93;100837.88;5050008;29;20052;-80
2022/06/20 01:39:59;;;;;;;11.77;5.30;;;18.40;99.90;;;18.70;86.28;100792.97;5049889;29;20057;-81
2022/06/20 01:42:32;;;;;;;12.95;5.95;;;18.40;99.90;;;18.60;86.44;100801.72;5050167;29;20060;-80
2022/06/20 01:45:57;;;;;;;10.50;6.45;;;18.30;99.90;;;18.49;86.28;100777.06;5049869;29;20060;-80
2022/06/20 01:48:05;;;;;;;11.57;6.05;;;18.20;99.90;;;18.34;86.79;100725.13;5049384;29;20089;-81
2022/06/20 01:50:38;;;;;;;10.32;5.65;;;18.10;99.90;;;18.29;86.92;100713.69;5049626;29;20523;-81
2022/06/20 01:53:14;;;;;;;9.85;5.53;;;18.00;99.90;;;18.24;87.10;100706.63;5049704;29;20503;-80
2022/06/20 01:55:50;;;;;;;11.13;5.03;;;17.90;99.90;;;18.17;87.99;100693.41;5049730;29;20427;-79
2022/06/20 01:58:27;;;;;;;8.73;4.88;;;17.90;99.90;;;18.15;88.34;100675.84;5049643;29;20078;-79
2022/06/20 02:01:02;;;;;;;10.35;5.18;;;17.80;99.90;;;18.10;88.74;100662.63;5058325;29;20057;-80
2022/06/20 02:03:36;;;;;;;7.97;4.60;;;17.80;99.90;;;18.06;88.88;100638.88;5059091;29;20056;-81
2022/06/20 02:06:10;;;;;;;;;;;17.70;99.90;;;17.98;89.13;100588.75;5048930;29;20048;-79
2022/06/20 02:08:46;;;;;;;10.85;5.90;;;17.70;99.90;;;17.89;89.41;100512.28;5048879;29;19946;-81
2022/06/20 02:11:22;;;;;;;14.80;7.03;;;17.60;99.90;;;17.70;89.84;100444.59;5049194;29;20048;-80
2022/06/20 02:14:00;;;;;;;14.80;6.97;;;17.40;99.90;;;17.49;91.15;100435.78;5049339;29;20087;-80
2022/06/20 02:16:36;;;;;;;16.02;7.32;;;17.30;99.90;;;17.41;91.83;100397.13;5048954;29;20492;-80
2022/06/20 02:19:13;;;;;;;14.20;6.18;;;17.20;99.90;;;17.37;92.38;100356.75;5049311;29;20107;-79
2022/06/20 02:21:46;;;;;;;12.63;6.90;;;17.20;99.90;;;17.25;92.76;100336.53;5049064;29;20052;-79
2022/06/20 02:24:21;;;;;;;15.85;6.68;;;17.10;99.90;;;17.17;93.46;100306.69;5049142;29;20512;-80
2022/06/20 02:26:57;;;;;;;15.23;7.28;;;17.00;99.90;;;17.07;93.60;100249.63;5049323;29;20063;-80
2022/06/20 02:29:32;;;;;;;13.88;7.32;;;16.90;99.90;;;16.99;93.92;100249.63;5049170;29;20055;-80
2022/06/20 02:32:11;;;;;;;12.55;7.05;;;16.90;99.90;;;16.93;94.51;100323.34;5122824;23;20104;-74
2022/06/20 02:34:45;;;;;;;8.70;5.10;;;16.80;99.90;;;16.96;95.48;100364.59;5062442;29;20487;-74
2022/06/20 02:37:24;;;;;;;12.32;6.88;;;16.80;99.90;;;17.00;95.74;100374.25;5047109;29;20135;-74
2022/06/20 02:40:02;;;;;;;9.38;4.75;;;16.80;99.90;;;17.07;95.70;100337.38;5047236;29;20057;-74
2022/06/20 02:42:41;;;;;;;10.57;4.90;;;16.80;99.90;;;17.12;95.35;100294.41;5049214;29;20409;-74
2022/06/20 02:45:14;;;;;;;6.15;3.58;;;16.90;99.90;;;17.20;95.28;100274.19;5066304;29;20079;-74
2022/06/20 02:47:51;;;;;;;10.02;4.57;;;16.90;99.90;;;17.17;95.11;100258.41;5066268;29;20068;-74
2022/06/20 02:50:29;;;;;;;10.70;4.22;;;16.90;99.90;;;17.20;95.13;100269.81;5066335;29;20060;-74
2022/06/20 02:53:07;;;;;;;6.68;3.45;;;16.90;99.90;;;17.22;94.93;100254.91;5066183;29;20063;-74
2022/06/20 02:55:40;;;;;;;4.55;3.25;;;17.00;99.90;;;17.28;95.16;100248.75;5065820;29;20053;-74
2022/06/20 02:58:17;;;;;;;5.32;3.30;;;17.00;99.90;;;17.33;94.16;100307.56;5066402;29;20060;-74
2022/06/20 03:00:54;;;;;;;4.20;2.80;;;17.00;99.90;;;17.33;94.13;100323.34;5066429;29;20063;-74
2022/06/20 03:03:33;;;;;;;7.25;3.40;;;17.10;99.90;;;17.33;94.43;100331.25;5066116;29;20379;-74
2022/06/20 03:06:07;;;;;;;5.13;3.03;;;17.10;99.90;;;17.37;94.88;100325.13;5065927;29;20057;-74
2022/06/20 03:08:39;;;;;;;;;;;17.10;99.90;;;17.43;95.20;100329.53;5066208;29;20049;-74
2022/06/20 03:11:12;;;;;;;3.40;2.33;;;17.10;99.90;;;17.48;95.22;100328.63;5065826;29;19923;-74
2022/06/20 03:13:44;;;;;;;5.32;2.90;;;17.20;99.90;;;17.52;95.11;100345.31;5066030;29;20044;-74
2022/06/20 03:16:17;;;;;;;5.85;3.05;;;17.20;99.90;;;17.55;95.03;100351.47;5066222;29;20056;-74
2022/06/20 03:18:51;;;;;;;6.10;3.33;;;17.30;99.90;;;17.57;95.19;100356.72;5070032;29;20055;-74
2022/06/20 03:21:36;;;;;;;6.13;2.97;;;17.30;99.90;;;17.55;95.61;100379.59;5070011;29;20153;-74
2022/06/20 03:24:11;;;;;;;6.72;3.50;;;17.30;99.90;;;17.50;95.41;100411.19;5070110;29;20061;-74
2022/06/20 03:26:43;;;;;;;7.68;3.92;;;17.30;99.90;;;17.43;95.74;100441.06;5069996;29;20056;-74
2022/06/20 03:29:18;;;;;;;4.45;2.97;;;17.20;99.90;;;17.43;96.56;100479.69;5069871;29;20061;-74
2022/06/20 03:31:50;;;;;;;5.47;2.83;;;17.20;99.90;;;17.48;97.39;100470.94;5069741;29;20056;-74
2022/06/20 03:34:24;;;;;;;8.48;3.95;;;17.20;99.90;;;17.49;96.76;100456.88;5069716;29;20056;-74
2022/06/20 03:36:56;;;;;;;8.30;3.85;;;17.20;99.90;;;17.42;96.51;100449.84;5069620;29;20260;-74
2022/06/20 03:39:28;;;;;;;7.80;4.18;;;17.20;99.90;;;17.38;96.87;100474.41;5069373;29;20108;-74
2022/06/20 03:42:01;;;;;;;7.70;4.55;;;17.10;99.90;;;17.39;97.35;100476.16;5069483;29;20495;-74
2022/06/20 03:44:38;;;;;;;6.57;3.72;;;17.10;99.90;;;17.40;97.13;100470.00;5069626;29;20427;-73
2022/06/20 03:47:18;;;;;;;6.45;3.80;;;17.10;99.90;;;17.45;97.27;100520.97;5069103;29;20052;-74
2022/06/20 03:49:57;;;;;;;8.00;3.60;;;17.20;99.90;;;17.50;97.46;100561.41;5069410;29;20060;-74
2022/06/20 03:52:35;;;;;;;5.35;3.65;;;17.20;99.90;;;17.53;97.81;100579.84;5069110;29;20052;-74
2022/06/20 03:55:14;;;;;;;8.18;3.97;;;17.20;99.90;;;17.52;97.51;100604.44;5069357;29;20483;-74
2022/06/20 03:57:53;;;;;;;7.55;3.38;;;17.20;99.90;;;17.55;98.01;100607.09;5069286;29;20524;-74
2022/06/20 04:00:35;;;;;;;11.57;4.68;;;17.20;99.90;;;17.59;97.97;100611.47;5069666;29;20503;-74
2022/06/20 04:03:13;;;;;;;9.73;4.80;;;17.20;99.90;;;17.53;97.47;100629.03;5069393;29;20057;-74
2022/06/20 04:05:51;;;;;;;7.50;4.18;;;17.20;99.90;;;17.52;97.64;100643.09;5068795;29;20144;-74
2022/06/20 04:10:57;;;;;;;10.23;5.82;;;17.20;99.90;;;17.52;97.99;100654.50;5068828;29;20062;-74
2022/06/20 04:11:27;;;;;;;9.55;4.38;;;17.20;99.90;;;17.45;97.34;100665.91;5068626;29;20631;-74
2022/06/20 04:14:05;;;;;;;9.98;5.65;;;17.20;99.90;;;17.40;97.30;100667.63;5069215;29;20052;-74
2022/06/20 04:16:43;;;;;;;9.50;4.80;;;17.10;99.90;;;17.35;96.92;100674.66;5069118;29;20048;-74
2022/06/20 04:19:17;;;;;;;9.43;4.80;;;17.10;99.90;;;17.22;96.30;100683.34;5069169;29;20049;-74
2022/06/20 04:21:56;;;;;;;9.57;5.40;;;17.00;99.90;;;17.06;95.67;100693.78;5068909;29;20494;-74
2022/06/20 04:24:35;;;;;;;8.60;4.63;;;16.90;99.90;;;16.93;95.38;100701.56;5069007;29;20049;-74
2022/06/20 04:27:15;;;;;;;9.27;5.32;;;16.70;99.90;;;16.87;95.96;100697.13;5069041;29;20062;-74
2022/06/20 04:29:55;;;;;;;8.10;4.40;;;16.60;99.90;;;16.76;95.98;100698.84;5068082;29;20091;-74
2022/06/20 04:32:35;;;;;;;8.77;5.03;;;16.50;99.90;;;16.63;96.41;100702.19;5068425;29;20059;-74
2022/06/20 04:35:14;;;;;;;7.15;4.20;;;16.40;99.90;;;16.62;97.39;100705.66;5068806;29;20048;-74
2022/06/20 04:37:52;;;;;;;9.90;5.10;;;16.40;99.90;;;16.60;97.51;100697.75;5068800;29;20052;-74
2022/06/20 04:40:29;;;;;;;7.93;4.10;;;16.40;99.90;;;16.59;97.53;100693.38;5068336;29;20067;-74
2022/06/20 04:43:09;;;;;;;11.45;5.40;;;16.40;99.90;;;16.61;97.94;100691.63;5068788;29;20054;-74
2022/06/20 04:45:47;;;;;;;8.15;4.82;;;16.40;99.90;;;16.54;97.30;100677.53;5068185;29;20144;-74
2022/06/20 04:48:21;;;;;;;8.18;4.90;;;16.40;99.90;;;16.50;97.32;100675.78;5068508;29;20056;-74
2022/06/20 04:50:56;;;;;;;;;;;16.30;99.90;;;16.45;97.24;100653.78;5068461;29;20058;-74
2022/06/20 04:53:33;;;;;;;10.43;5.70;;;16.30;99.90;;;16.42;97.23;100631.81;5068561;29;19924;-74
2022/06/20 04:56:11;;;;;;;9.02;5.18;;;16.30;99.90;;;16.39;97.07;100637.06;5067942;29;20052;-74
2022/06/20 04:58:48;;;;;;;8.68;4.25;;;16.30;99.90;;;16.32;97.35;100624.75;5068128;29;20095;-74
2022/06/20 05:01:21;;;;;;;8.48;4.78;;;16.20;99.90;;;16.28;97.61;100621.19;5068226;29;20056;-74
2022/06/20 05:04:12;;;;;;;9.85;5.50;;;16.20;99.90;;;16.27;97.62;100616.81;5067827;29;20056;-74
2022/06/20 05:06:44;;;;;;;8.40;5.03;;;16.20;99.90;;;16.25;97.53;100615.91;5068078;29;20053;-74
2022/06/20 05:09:24;;;;;;;7.68;4.93;;;16.10;99.90;;;16.25;97.46;100606.28;5067962;29;20052;-74
2022/06/20 05:12:07;;;;;;;9.65;5.00;;;16.10;99.90;;;16.25;97.17;100606.28;5067957;29;20131;-74
2022/06/20 05:14:48;;;;;;;9.55;5.68;;;16.20;99.90;;;16.22;96.98;100602.72;5067853;29;20144;-74
2022/06/20 05:17:25;;;;;;;9.27;4.72;;;16.10;99.90;;;16.20;97.34;100607.09;5067789;29;20060;-74
2022/06/20 05:20:01;;;;;;;11.05;6.03;;;16.10;99.90;;;16.16;97.31;100587.75;5067831;29;20052;-74
2022/06/20 05:22:40;;;;;;;8.23;5.10;;;16.00;99.90;;;16.14;97.75;100604.41;5067914;29;20157;-74
2022/06/20 05:25:22;;;;;;;11.07;6.45;;;16.00;99.90;;;16.10;97.89;100607.88;5067834;29;20049;-74
2022/06/20 05:27:59;;;;;;;10.50;5.45;;;16.00;99.90;;;16.08;97.85;100604.34;5067818;29;20083;-73
2022/06/20 05:30:35;;;;;;;9.55;6.10;;;16.00;99.90;;;16.04;97.46;100605.19;5067672;29;20139;-74
2022/06/20 05:33:25;;;;;;;10.95;6.43;;;16.00;99.90;;;15.99;98.14;100613.91;5067876;29;20075;-74
2022/06/20 05:36:03;;;;;;;10.38;5.65;;;16.00;99.90;;;16.06;98.37;100622.75;5067091;29;20063;-72
2022/06/20 05:38:42;;;;;;;10.80;6.43;;;16.00;99.90;;;16.15;98.31;100616.69;5067363;29;20063;-73
2022/06/20 05:41:17;;;;;;;12.50;6.82;;;16.00;99.90;;;16.19;97.87;100626.38;5067402;29;20056;-74
2022/06/20 05:43:49;;;;;;;10.30;6.18;;;16.10;99.90;;;16.26;98.09;100634.34;5067524;29;20075;-73
2022/06/20 05:46:27;;;;;;;14.52;7.00;;;16.10;99.90;;;16.34;97.67;100647.53;5067253;29;20052;-73
2022/06/20 05:49:06;;;;;;;12.88;7.30;;;16.10;99.90;;;16.35;97.33;100649.31;5067277;29;20500;-74
2022/06/20 05:51:41;;;;;;;12.70;7.13;;;16.20;99.90;;;16.37;97.49;100655.47;5047903;29;20064;-74
2022/06/20 05:54:17;;;;;;;12.93;7.75;;;16.20;99.90;;;16.38;97.38;100659.88;5047910;29;20072;-74
2022/06/20 05:56:57;;;;;;;9.10;5.85;;;16.20;99.90;;;16.38;97.34;100666.88;5047776;29;20406;-74
2022/06/20 05:59:41;;;;;;;8.10;5.18;;;16.20;99.90;;;16.42;97.28;100681.81;5047764;29;20063;-69
2022/06/20 06:02:22;;;;;;;9.55;4.93;;;16.20;99.90;;;16.47;97.33;100681.00;5047758;29;20063;-69
2022/06/20 06:05:05;;;;;;;8.50;4.63;;;16.20;99.90;;;16.54;97.38;100687.19;5047138;29;20053;-69
2022/06/20 06:07:44;;;;;;;8.10;4.68;;;16.30;99.90;;;16.59;97.11;100695.13;5047709;29;20487;-69
2022/06/20 06:10:31;;;;;;;9.52;4.78;;;16.30;99.90;;;16.65;96.84;100697.81;5050837;29;20383;-68
2022/06/20 06:13:22;;;;;;;5.78;3.65;;;16.30;99.90;;;16.68;96.49;100695.19;5060704;29;20041;-69
2022/06/20 06:18:57;;;;;;;5.47;2.83;;;16.40;99.90;;;16.93;98.77;100702.44;5060620;29;20096;-58
2022/06/20 06:21:29;;;;;;;8.38;3.95;;;16.70;99.90;;;17.40;95.60;100688.69;5071807;29;20087;-57
2022/06/20 06:24:03;;;;;;;7.10;3.63;;;17.20;99.90;;;17.81;91.90;100686.31;5072498;29;20131;-59
2022/06/20 06:26:36;;;;;;;6.50;3.70;;;17.60;99.90;;;18.16;88.51;100690.78;5071551;29;20052;-59
2022/06/20 06:29:19;;;;;;;8.27;3.92;;;18.00;99.90;;;18.50;85.87;100685.56;5071901;29;20112;-58
2022/06/20 06:31:57;;;;;;;6.47;3.90;;;18.40;99.90;;;18.68;83.75;100689.13;5070958;29;20065;-59
2022/06/20 06:34:45;;;;;;;4.57;2.80;;;18.60;99.90;;;18.86;82.65;100700.56;5067776;29;20486;-59
2022/06/20 06:37:22;;;;;;;7.20;3.28;;;18.80;99.90;;;18.97;81.40;100722.53;5068475;29;20056;-58
2022/06/20 06:40:03;;;;;;;5.50;3.30;;;18.90;99.90;;;18.96;81.16;100726.06;5061187;29;20060;-59
2022/06/20 06:42:35;;;;;;;4.80;3.00;;;18.90;99.90;;;18.97;81.25;100711.97;5053925;29;20058;-58
2022/06/20 06:45:17;;;;;;;6.30;3.65;;;19.00;99.90;;;19.07;80.03;100707.56;5061980;29;20161;-58
2022/06/20 06:47:58;;;;;;;5.45;2.90;;;19.10;99.90;;;19.11;79.82;100720.78;5060898;29;20089;-59
2022/06/20 06:50:35;;;;;;;6.28;3.88;;;19.10;99.90;;;19.10;78.94;100719.00;5050518;29;20074;-58
2022/06/20 06:53:27;;;;;;;8.15;2.97;;;19.10;99.90;;;19.00;79.27;100725.19;5055300;29;20044;-58
2022/06/20 06:56:06;;;;;;;6.50;2.83;;;19.00;99.90;;;18.98;79.51;100729.63;5066664;29;20052;-58
2022/06/20 06:58:46;;;;;;;8.40;4.05;;;19.00;99.90;;;18.94;79.36;100733.13;5068163;29;20056;-58
2022/06/20 07:01:24;;;;;;;5.03;2.60;;;19.00;99.90;;;18.93;79.16;100726.09;5059356;29;20048;-58
2022/06/20 07:04:01;;;;;;;4.53;2.83;;;18.90;99.90;;;18.95;79.15;100708.47;5063792;29;20140;-60
2022/06/20 07:06:41;;;;;;;5.43;2.63;;;18.90;99.90;;;18.96;79.46;100712.88;5050937;29;20471;-58
2022/06/20 07:09:20;;;;;;;4.93;3.20;;;18.90;99.90;;;19.03;79.05;100727.81;5057454;29;20055;-59
2022/06/20 07:12:00;;;;;;;5.00;2.53;;;19.00;99.90;;;18.91;78.90;100734.03;5067373;29;20075;-59
2022/06/20 07:14:38;;;;;;;5.55;3.22;;;18.90;99.90;;;18.84;78.57;100760.41;5049149;29;20053;-75
2022/06/20 07:17:19;;;;;;;6.03;3.30;;;18.90;99.90;;;18.65;78.24;100760.38;5046535;29;20083;-75
2022/06/20 07:19:52;;;;;;;;;;;18.70;99.90;;;18.33;79.35;100781.41;5046784;29;20056;-74
2022/06/20 07:22:25;;;;;;;3.45;2.33;;;18.40;99.90;;;18.04;80.57;100776.03;5047430;29;20376;-74
2022/06/20 07:24:57;;;;;;;4.72;2.75;;;18.10;99.90;;;17.74;81.88;100782.06;5057968;29;20494;-75
2022/06/20 07:27:35;;;;;;;8.50;2.95;;;17.80;99.90;;;17.46;83.26;100769.53;5066003;29;20495;-75
2022/06/20 07:30:13;;;;;;;5.07;2.45;;;17.50;99.90;;;17.28;84.77;100784.38;5065809;29;20063;-72
2022/06/20 07:32:52;;;;;;;5.30;2.60;;;17.30;99.90;;;17.18;85.69;100792.19;5065683;29;20442;-72
2022/06/20 07:35:29;;;;;;;7.13;2.70;;;17.20;99.90;;;17.06;85.98;100804.38;5065644;29;20063;-71
2022/06/20 07:38:06;;;;;;;6.65;2.22;;;17.00;99.90;;;16.97;86.77;100792.91;5065784;29;20410;-71
2022/06/20 07:40:45;;;;;;;6.93;2.53;;;16.90;99.90;;;16.92;87.50;100795.47;5065372;29;20052;-72
2022/06/20 07:43:24;;;;;;;4.28;2.42;;;16.80;99.90;;;16.87;87.92;100793.66;5065765;29;20055;-72
2022/06/20 07:46:01;;;;;;;4.28;1.95;;;16.80;99.90;;;16.78;88.47;100791.84;5065344;29;20467;-72
2022/06/20 07:48:38;;;;;;;6.95;2.60;;;16.70;99.90;;;16.70;89.50;100809.31;5057928;29;20060;-71
2022/06/20 07:51:16;;;;;;;4.63;2.45;;;16.70;99.90;;;16.74;90.28;100817.25;5057886;29;20053;-69
2022/06/20 07:53:54;;;;;;;4.15;2.13;;;16.70;99.90;;;16.86;90.81;100821.75;5061579;29;20559;-71
2022/06/20 07:56:32;;;;;;;3.80;2.22;;;16.70;99.90;;;16.89;89.98;100816.53;5059054;29;20053;-71
2022/06/20 07:59:12;;;;;;;3.47;1.73;;;16.80;99.90;;;16.90;89.88;100813.03;5063011;29;20059;-70
2022/06/20 08:01:52;;;;;;;4.90;2.20;;;16.80;99.90;;;16.89;90.04;100827.06;5059260;29;20058;-74
2022/06/20 08:04:32;;;;;;;2.70;1.70;;;16.70;99.90;;;16.83;89.90;100832.25;5059153;29;20061;-76
2022/06/20 08:07:11;;;;;;;7.95;2.85;;;16.70;99.90;;;16.83;90.63;100849.81;5057661;29;20059;-74
2022/06/20 08:09:51;;;;;;;2.90;1.90;;;16.60;99.90;;;16.78;90.53;100871.69;5061077;29;20056;-73
2022/06/20 08:12:29;;;;;;;5.15;2.20;;;16.60;99.90;;;16.70;90.91;100893.53;5069096;29;20079;-73
2022/06/20 08:15:05;;;;;;;5.32;2.22;;;16.50;99.90;;;16.59;91.38;100890.75;5069011;29;20397;-72
2022/06/20 08:17:37;;;;;;;2.72;1.88;;;16.40;99.90;;;16.59;92.48;100905.66;5068469;29;20425;-75
2022/06/20 08:20:12;;;;;;;3.65;2.45;;;16.30;99.90;;;16.58;91.94;100899.50;5058162;29;20426;-78
2022/06/20 08:22:52;;;;;;;4.65;1.77;;;16.30;99.90;;;16.57;91.83;100896.88;5070387;29;20068;-77
2022/06/20 08:25:26;;;;;;;5.50;2.00;;;16.30;99.90;;;16.60;92.52;100896.88;5069415;29;20570;-77
2022/06/20 08:28:06;;;;;;;3.60;1.90;;;16.30;99.90;;;16.64;92.82;100893.44;5070342;29;20059;-78
2022/06/20 08:30:45;;;;;;;2.88;1.85;;;16.40;99.90;;;16.68;92.98;100887.31;5070072;29;20087;-77
2022/06/20 08:33:24;;;;;;;3.67;1.83;;;16.40;99.90;;;16.67;93.17;100890.81;5118651;23;20143;-86
2022/06/20 08:36:04;;;;;;;4.60;2.30;;;16.40;99.90;;;16.66;92.93;100896.97;5062691;29;20145;-84
2022/06/20 08:38:45;;;;;;;2.78;1.98;;;16.40;99.90;;;16.72;93.18;100912.84;5069302;29;21589;-86
2022/06/20 08:41:42;;;;;;;;;;;16.40;99.90;;;16.74;93.51;100921.66;5072654;29;20061;-87
2022/06/20 08:45:07;;;;;;;5.47;2.13;;;16.50;99.90;;;16.76;93.48;100925.19;5073770;29;19967;-86
2022/06/20 08:48:57;;;;;;;2.83;1.92;;;16.50;99.90;;;16.81;93.75;100912.94;5066202;29;20057;-85
2022/06/20 08:52:26;;;;;;;3.13;1.75;;;16.50;99.90;;;16.84;93.73;100918.28;5066002;29;20056;-85
2022/06/20 08:55:37;;;;;;;3.67;2.22;;;16.60;99.90;;;16.88;93.80;100920.03;5058965;29;20112;-85
2022/06/20 08:58:21;;;;;;;3.75;2.33;;;16.60;99.90;;;16.93;93.93;100917.47;5066255;29;20656;-86
2022/06/20 09:01:04;;;;;;;5.45;2.20;;;16.60;99.90;;;16.97;94.04;100920.16;5057200;29;20552;-88
2022/06/20 09:04:00;;;;;;;6.30;2.58;;;16.70;99.90;;;17.03;94.16;100925.50;5068572;29;20059;-86
2022/06/20 09:06:52;;;;;;;3.45;2.28;;;16.70;99.90;;;17.08;93.85;100929.06;5070661;29;20056;-87
2022/06/20 09:10:04;;;;;;;7.03;3.30;;;16.80;99.90;;;17.09;93.11;100928.19;5073265;29;20055;-86
2022/06/20 09:13:09;;;;;;;5.05;2.95;;;16.80;99.90;;;17.11;92.83;100930.84;5073204;29;20057;-87
2022/06/20 09:15:50;;;;;;;5.72;3.05;;;16.80;99.90;;;17.18;93.21;100934.41;5054745;29;20049;-86
2022/06/20 09:18:40;;;;;;;6.60;3.20;;;16.90;99.90;;;17.15;92.54;100930.03;5055932;29;20056;-86
2022/06/20 09:21:27;;;;;;;7.07;3.13;;;16.80;99.90;;;17.10;91.88;100931.72;5053374;29;20055;-88
2022/06/20 09:24:19;;;;;;;5.25;3.08;;;16.80;99.90;;;17.12;92.03;100942.25;5054968;29;20052;-87
2022/06/20 09:27:02;;;;;;;6.32;3.20;;;16.80;99.90;;;17.15;92.06;100947.53;5053790;29;20064;-88
2022/06/20 09:30:04;;;;;;;7.15;2.97;;;16.80;99.90;;;17.15;90.92;100947.53;5055846;29;20063;-87
2022/06/20 09:33:39;;;;;;;5.63;2.13;;;16.80;99.90;;;17.14;89.60;100953.69;5060290;29;20053;-86
2022/06/20 09:36:55;;;;;;;3.85;2.08;;;16.80;99.90;;;17.16;89.25;100954.59;5016508;29;20053;-86
2022/06/20 09:39:38;;;;;;;4.75;2.15;;;16.80;99.90;;;17.19;88.70;100970.44;5060153;29;20112;-87
2022/06/20 09:42:21;;;;;;;7.80;2.30;;;16.90;99.90;;;17.30;88.83;100980.22;5059412;29;20055;-86
2022/06/20 09:45:09;;;;;;;6.22;2.10;;;17.00;99.90;;;17.45;88.30;100987.38;5058987;29;20124;-87
2022/06/20 09:47:57;;;;;;;4.78;2.00;;;17.10;99.90;;;17.59;88.88;100975.22;5060165;29;20060;-86
2022/06/20 09:50:54;;;;;;;5.88;2.20;;;17.20;99.90;;;17.73;88.52;100972.72;5059944;29;20056;-85
2022/06/20 09:53:39;;;;;;;4.57;2.20;;;17.30;99.90;;;17.75;87.78;100972.75;5059723;29;20064;-87
2022/06/20 09:56:19;;;;;;;6.38;1.55;;;17.40;99.90;;;17.81;87.29;100975.44;5058164;29;20081;-86
2022/06/20 09:59:04;;;;;;;5.32;2.00;;;17.40;99.90;;;17.83;86.39;100981.63;5059289;29;20103;-87
2022/06/20 10:01:44;;;;;;;5.35;2.08;;;17.50;99.90;;;17.93;85.98;100979.91;5064366;29;20519;-87
2022/06/20 10:04:28;;;;;;;4.30;1.75;;;17.50;99.90;;;17.97;85.42;100979.97;5058792;29;20048;-88
2022/06/20 10:07:08;;;;;;;2.33;1.30;;;17.60;99.90;;;18.02;84.75;100983.53;5059522;29;20124;-87
2022/06/20 10:09:52;;;;;;;4.18;1.35;;;17.60;99.90;;;18.07;84.07;100979.16;5071774;29;20135;-87
2022/06/20 10:12:39;;;;;;;5.53;1.73;;;17.70;99.90;;;18.16;83.95;100976.59;5071898;29;20116;-88
2022/06/20 10:15:18;;;;;;;3.22;1.52;;;17.80;99.90;;;18.35;84.10;100992.53;5072603;29;20513;-87
2022/06/20 10:18:02;;;;;;;4.30;1.63;;;17.90;99.90;;;18.51;83.59;101007.56;5074588;29;20056;-87
2022/06/20 10:20:44;;;;;;;6.53;2.13;;;18.10;99.90;;;18.63;82.46;101012.03;5075485;29;20062;-86
2022/06/20 10:23:33;;;;;;;7.35;3.17;;;18.10;99.90;;;18.68;81.25;101005.94;5073823;29;20131;-88
2022/06/20 10:26:42;;;;;;;6.32;2.20;;;18.20;99.90;;;18.62;80.59;101018.19;5052393;29;20139;-86
2022/06/20 10:29:23;;;;;;;8.13;2.50;;;18.20;99.90;;;18.51;80.12;101020.78;5063065;29;20053;-87
2022/06/20 10:32:09;;;;;;;3.67;1.70;;;18.10;99.90;;;18.34;79.35;101010.13;5065938;29;20117;-88
2022/06/20 10:34:45;;;;;;;4.10;1.95;;;18.00;99.90;;;18.24;79.30;101003.00;5054540;29;20636;-88
2022/06/20 10:37:29;;;;;;;4.30;1.70;;;17.90;99.90;;;18.17;79.10;101007.34;5054354;29;20137;-89
2022/06/20 10:40:10;;;;;;;4.45;2.00;;;17.80;99.90;;;18.13;79.09;101010.88;5056355;29;20057;-86
2022/06/20 10:42:53;;;;;;;5.28;1.75;;;17.80;99.90;;;18.04;78.81;101013.41;5055331;29;20053;-87
2022/06/20 10:45:44;;;;;;;6.30;2.05;;;17.70;99.90;;;18.02;78.93;101016.94;5056417;29;20101;-88
2022/06/20 10:48:50;;;;;;;4.60;1.88;;;17.70;99.90;;;18.06;79.78;101014.34;5068976;29;20052;-89
2022/06/20 10:51:33;;;;;;;3.92;1.90;;;17.70;99.90;;;18.12;80.45;101014.34;5050634;29;20064;-87
2022/06/20 10:54:22;;;;;;;5.15;2.20;;;17.70;99.90;;;18.14;80.09;101017.91;5073611;29;20064;-87
2022/06/20 10:57:03;;;;;;;4.35;2.10;;;17.80;99.90;;;18.22;80.24;101017.06;5072298;29;20503;-88
2022/06/20 10:59:52;;;;;;;4.57;2.10;;;17.80;99.90;;;18.32;80.04;101010.97;5073634;29;20052;-87
2022/06/20 11:02:52;;;;;;;4.57;1.77;;;17.90;99.90;;;18.36;80.33;101007.50;5074975;29;20445;-84
2022/06/20 11:05:36;;;;;;;6.45;2.22;;;18.00;99.90;;;18.41;80.37;101014.56;5075190;29;20112;-85
2022/06/20 11:08:26;;;;;;;5.95;2.20;;;18.10;99.90;;;18.49;80.23;101019.88;5077208;29;20062;-83
2022/06/20 11:11:11;;;;;;;7.18;2.42;;;18.10;99.90;;;18.53;79.88;101015.53;5076381;29;20052;-84
2022/06/20 11:13:52;;;;;;;4.78;2.13;;;18.10;99.90;;;18.59;79.53;101013.81;5077295;29;20052;-83